createdAt,value
2022-10-31T00:00:40.868Z,7.70
2022-10-31T00:03:07.455Z,7.40
2022-10-31T00:05:33.976Z,8.83
2022-10-31T00:08:00.499Z,9.17
2022-10-31T00:10:26.986Z,10.03
2022-10-31T00:12:53.543Z,10.70
2022-10-31T00:15:20.016Z,10.60
2022-10-31T00:17:46.532Z,7.70
2022-10-31T00:20:13.040Z,6.27
2022-10-31T00:22:39.557Z,8.37
2022-10-31T00:25:06.076Z,6.63
2022-10-31T00:27:32.630Z,7.73
2022-10-31T00:29:59.409Z,5.57
2022-10-31T00:32:25.933Z,7.17
2022-10-31T00:34:52.464Z,7.97
2022-10-31T00:37:19.019Z,8.23
2022-10-31T00:39:45.535Z,7.97
2022-10-31T00:42:12.064Z,6.13
2022-10-31T00:44:38.616Z,8.93
2022-10-31T00:47:05.102Z,6.83
2022-10-31T00:49:31.583Z,8.03
2022-10-31T00:51:58.115Z,6.40
2022-10-31T00:54:24.635Z,8.53
2022-10-31T00:56:51.155Z,6.97
2022-10-31T00:59:17.631Z,9.53
2022-10-31T01:01:44.287Z,6.67
2022-10-31T01:04:10.887Z,9.80
2022-10-31T01:06:37.372Z,7.20
2022-10-31T01:09:03.888Z,7.67
2022-10-31T01:11:30.410Z,7.03
2022-10-31T01:13:56.900Z,6.37
2022-10-31T01:16:23.460Z,5.10
2022-10-31T01:18:49.940Z,8.47
2022-10-31T01:21:16.491Z,6.70
2022-10-31T01:23:43.005Z,7.97
2022-10-31T01:26:09.475Z,8.37
2022-10-31T01:28:36.023Z,6.63
2022-10-31T01:31:02.558Z,9.70
2022-10-31T01:33:29.041Z,6.20
2022-10-31T01:35:55.580Z,8.87
2022-10-31T01:38:22.115Z,9.23
2022-10-31T01:40:48.640Z,10.00
2022-10-31T01:43:15.226Z,10.80
2022-10-31T01:45:41.804Z,11.40
2022-10-31T01:48:08.304Z,4.77
2022-10-31T01:50:34.826Z,8.33
2022-10-31T01:53:01.312Z,9.23
2022-10-31T01:55:29.988Z,7.17
2022-10-31T01:57:57.192Z,9.00
2022-10-31T02:00:23.869Z,7.30
2022-10-31T02:02:50.524Z,8.97
2022-10-31T02:05:17.072Z,10.57
2022-10-31T02:07:43.588Z,7.43
2022-10-31T02:10:10.137Z,7.77
2022-10-31T02:12:36.620Z,8.03
2022-10-31T02:15:03.189Z,8.83
2022-10-31T02:17:29.699Z,7.13
2022-10-31T02:19:56.217Z,4.87
2022-10-31T02:22:22.752Z,5.67
2022-10-31T02:24:49.291Z,5.27
2022-10-31T02:27:15.816Z,5.77
2022-10-31T02:29:42.333Z,8.43
2022-10-31T02:32:08.891Z,10.13
2022-10-31T02:34:35.378Z,8.63
2022-10-31T02:37:01.917Z,9.97
2022-10-31T02:39:28.417Z,10.03
2022-10-31T02:41:54.984Z,13.00
2022-10-31T02:44:21.497Z,20.33
2022-10-31T02:46:47.996Z,8.07
2022-10-31T02:49:14.508Z,9.37
2022-10-31T02:51:41.027Z,5.97
2022-10-31T02:54:07.716Z,4.03
2022-10-31T02:56:34.241Z,6.57
2022-10-31T02:59:00.709Z,5.83
2022-10-31T03:01:27.308Z,7.77
2022-10-31T03:03:53.928Z,4.80
2022-10-31T03:06:20.448Z,9.73
2022-10-31T03:08:47.002Z,6.43
2022-10-31T03:11:13.518Z,10.70
2022-10-31T03:13:40.025Z,7.47
2022-10-31T03:16:06.579Z,7.33
2022-10-31T03:18:33.099Z,5.37
2022-10-31T03:20:59.575Z,8.13
2022-10-31T03:23:26.096Z,5.73
2022-10-31T03:25:52.672Z,4.07
2022-10-31T03:30:50.607Z,7.17
2022-10-31T03:33:17.118Z,5.07
2022-10-31T03:35:43.624Z,8.07
2022-10-31T03:38:10.139Z,8.40
2022-10-31T03:40:36.692Z,8.40
2022-10-31T03:43:03.415Z,10.27
2022-10-31T03:45:30.204Z,6.70
2022-10-31T03:47:56.851Z,5.90
2022-10-31T03:50:23.546Z,7.53
2022-10-31T03:52:50.033Z,7.27
2022-10-31T03:55:16.558Z,5.63
2022-10-31T03:57:43.103Z,4.20
2022-10-31T04:00:09.601Z,5.47
2022-10-31T04:02:36.351Z,6.40
2022-10-31T04:05:03.000Z,5.00
2022-10-31T04:07:29.517Z,9.43
2022-10-31T04:09:56.069Z,5.73
2022-10-31T04:12:22.531Z,12.03
2022-10-31T04:14:49.047Z,9.57
2022-10-31T04:17:15.572Z,11.07
2022-10-31T04:19:42.094Z,6.33
2022-10-31T04:22:08.782Z,8.13
2022-10-31T04:24:35.311Z,8.30
2022-10-31T04:27:01.837Z,7.17
2022-10-31T04:29:28.379Z,6.77
2022-10-31T04:31:54.859Z,5.93
2022-10-31T04:34:21.393Z,5.27
2022-10-31T04:36:47.942Z,5.73
2022-10-31T04:39:14.433Z,6.67
2022-10-31T04:41:40.973Z,7.87
2022-10-31T04:44:07.517Z,8.40
2022-10-31T04:46:34.063Z,7.30
2022-10-31T04:49:00.588Z,6.63
2022-10-31T04:51:27.118Z,7.23
2022-10-31T04:53:53.636Z,10.97
2022-10-31T04:56:20.106Z,5.73
2022-10-31T04:58:46.591Z,4.77
2022-10-31T05:01:13.296Z,6.50
2022-10-31T05:03:39.940Z,5.13
2022-10-31T05:06:06.479Z,7.77
2022-10-31T05:08:32.987Z,9.67
2022-10-31T05:11:03.253Z,8.70
2022-10-31T05:13:31.186Z,7.03
2022-10-31T05:15:57.707Z,4.60
2022-10-31T05:18:24.222Z,7.57
2022-10-31T05:20:50.711Z,4.70
2022-10-31T05:23:17.247Z,6.37
2022-10-31T05:25:43.808Z,5.93
2022-10-31T05:28:10.325Z,4.97
2022-10-31T05:30:36.808Z,6.73
2022-10-31T05:33:03.529Z,6.33
2022-10-31T05:35:30.305Z,7.67
2022-10-31T05:37:56.828Z,9.60
2022-10-31T05:40:23.511Z,7.00
2022-10-31T05:42:49.979Z,10.03
2022-10-31T05:45:16.497Z,11.27
2022-10-31T05:47:43.040Z,9.83
2022-10-31T05:50:09.536Z,7.97
2022-10-31T05:52:36.011Z,10.00
2022-10-31T05:55:02.566Z,9.00
2022-10-31T05:57:29.079Z,5.90
2022-10-31T05:59:55.600Z,8.07
2022-10-31T06:02:22.147Z,8.20
2022-10-31T06:04:48.729Z,6.27
2022-10-31T06:07:15.277Z,12.60
2022-10-31T06:09:41.833Z,9.93
2022-10-31T06:12:08.324Z,7.93
2022-10-31T06:14:34.803Z,7.97
2022-10-31T06:17:01.298Z,7.20
2022-10-31T06:19:27.848Z,5.57
2022-10-31T06:21:54.362Z,7.50
2022-10-31T06:24:21.037Z,4.57
2022-10-31T06:26:47.562Z,6.73
2022-10-31T06:29:14.075Z,4.20
2022-10-31T06:31:40.615Z,6.53
2022-10-31T06:34:07.128Z,4.57
2022-10-31T06:36:33.678Z,6.77
2022-10-31T06:39:00.173Z,7.80
2022-10-31T06:41:26.731Z,6.67
2022-10-31T06:43:53.252Z,6.80
2022-10-31T06:46:19.763Z,8.33
2022-10-31T06:48:46.368Z,6.40
2022-10-31T06:51:12.999Z,8.20
2022-10-31T06:53:39.520Z,6.23
2022-10-31T06:56:06.044Z,9.07
2022-10-31T06:58:32.580Z,8.07
2022-10-31T07:00:59.143Z,9.07
2022-10-31T07:03:25.754Z,9.53
2022-10-31T07:05:52.306Z,8.27
2022-10-31T07:08:18.863Z,9.57
2022-10-31T07:10:45.364Z,5.97
2022-10-31T07:13:11.925Z,6.43
2022-10-31T07:15:38.400Z,7.83
2022-10-31T07:18:04.883Z,8.00
2022-10-31T07:20:31.595Z,7.20
2022-10-31T07:22:58.124Z,7.40
2022-10-31T07:25:24.651Z,9.97
2022-10-31T07:27:51.212Z,10.33
2022-10-31T07:30:17.737Z,10.33
2022-10-31T07:32:44.259Z,12.23
2022-10-31T07:35:10.799Z,7.67
2022-10-31T07:37:37.320Z,6.70
2022-10-31T07:40:03.857Z,8.00
2022-10-31T07:42:30.368Z,7.47
2022-10-31T07:44:57.831Z,6.43
2022-10-31T07:47:24.447Z,6.33
2022-10-31T07:49:50.972Z,10.90
2022-10-31T07:52:17.517Z,8.93
2022-10-31T07:54:44.060Z,7.63
2022-10-31T07:57:10.532Z,7.30
2022-10-31T07:59:37.055Z,8.17
2022-10-31T08:02:03.551Z,8.03
2022-10-31T08:04:30.059Z,6.37
2022-10-31T08:06:56.571Z,10.40
2022-10-31T08:09:23.424Z,10.90
2022-10-31T08:11:49.979Z,8.90
2022-10-31T08:14:16.500Z,8.23
2022-10-31T08:16:43.007Z,9.93
2022-10-31T08:19:09.507Z,11.60
2022-10-31T08:21:35.987Z,10.97
2022-10-31T08:24:02.469Z,10.07
2022-10-31T08:26:29.045Z,11.17
2022-10-31T08:28:55.528Z,12.53
2022-10-31T08:31:22.047Z,10.70
2022-10-31T08:33:48.519Z,8.70
2022-10-31T08:36:15.084Z,9.20
2022-10-31T08:38:41.570Z,11.57
2022-10-31T08:41:08.092Z,10.40
2022-10-31T08:43:34.727Z,6.73
2022-10-31T08:46:01.200Z,7.80
2022-10-31T08:48:27.723Z,9.57
2022-10-31T08:50:54.255Z,9.67
2022-10-31T08:53:20.802Z,10.80
2022-10-31T08:55:47.294Z,10.80
2022-10-31T08:58:13.849Z,8.77
2022-10-31T09:00:40.418Z,7.10
2022-10-31T09:03:06.974Z,7.17
2022-10-31T09:05:33.602Z,6.90
2022-10-31T09:08:00.653Z,11.37
2022-10-31T09:10:27.427Z,8.00
2022-10-31T09:12:53.968Z,8.83
2022-10-31T09:15:20.497Z,9.30
2022-10-31T09:17:47.051Z,8.13
2022-10-31T09:20:13.566Z,9.93
2022-10-31T09:22:40.061Z,7.23
2022-10-31T09:25:06.625Z,9.87
2022-10-31T09:27:33.147Z,8.93
2022-10-31T09:29:59.630Z,6.23
2022-10-31T09:32:26.175Z,5.90
2022-10-31T09:34:52.694Z,9.47
2022-10-31T09:37:19.199Z,10.23
2022-10-31T09:39:45.754Z,10.17
2022-10-31T09:42:12.276Z,6.57
2022-10-31T09:44:38.800Z,5.40
2022-10-31T09:47:05.359Z,5.97
2022-10-31T09:49:31.931Z,7.43
2022-10-31T09:51:58.528Z,9.17
2022-10-31T09:54:25.083Z,10.60
2022-10-31T09:56:51.559Z,7.00
2022-10-31T09:59:18.094Z,5.13
2022-10-31T10:01:44.740Z,4.43
2022-10-31T10:04:11.330Z,5.00
2022-10-31T10:06:37.859Z,9.27
2022-10-31T10:09:04.380Z,3.93
2022-10-31T10:11:30.985Z,6.07
2022-10-31T10:13:57.567Z,5.90
2022-10-31T10:16:24.092Z,5.20
2022-10-31T10:18:50.608Z,4.53
2022-10-31T10:21:17.275Z,5.60
2022-10-31T10:23:43.751Z,6.67
2022-10-31T10:26:11.339Z,9.57
2022-10-31T10:28:38.048Z,5.07
2022-10-31T10:31:04.523Z,6.90
2022-10-31T10:33:31.048Z,9.10
2022-10-31T10:35:57.595Z,7.47
2022-10-31T10:38:24.106Z,4.23
2022-10-31T10:40:50.566Z,4.90
2022-10-31T10:43:17.120Z,5.00
2022-10-31T10:45:43.635Z,6.33
2022-10-31T10:48:10.106Z,5.43
2022-10-31T10:50:36.611Z,6.50
2022-10-31T10:53:03.117Z,7.23
2022-10-31T10:55:29.645Z,8.40
2022-10-31T10:57:56.216Z,5.30
2022-10-31T11:00:22.730Z,5.60
2022-10-31T11:02:49.473Z,7.00
2022-10-31T11:05:16.177Z,5.73
2022-10-31T11:07:42.683Z,5.20
2022-10-31T11:10:09.164Z,5.73
2022-10-31T11:12:35.695Z,4.53
2022-10-31T11:15:02.227Z,4.40
2022-10-31T11:17:28.719Z,8.07
2022-10-31T11:19:55.243Z,5.80
2022-10-31T11:22:21.754Z,5.10
2022-10-31T11:24:48.267Z,6.50
2022-10-31T11:27:14.777Z,6.70
2022-10-31T11:29:41.287Z,4.83
2022-10-31T11:32:07.836Z,3.30
2022-10-31T11:34:34.355Z,6.00
2022-10-31T11:37:00.876Z,5.03
2022-10-31T11:39:27.411Z,4.93
2022-10-31T11:41:53.928Z,9.90
2022-10-31T11:44:20.476Z,10.33
2022-10-31T11:46:47.019Z,7.33
2022-10-31T11:49:13.502Z,8.27
2022-10-31T11:51:40.025Z,6.77
2022-10-31T11:54:06.584Z,6.60
2022-10-31T11:56:33.071Z,6.90
2022-10-31T11:58:59.554Z,7.97
2022-10-31T12:01:26.081Z,9.53
2022-10-31T12:03:52.626Z,5.33
2022-10-31T12:06:19.129Z,4.73
2022-10-31T12:08:45.639Z,10.40
2022-10-31T12:11:12.120Z,8.97
2022-10-31T12:13:38.677Z,6.60
2022-10-31T12:16:05.144Z,8.60
2022-10-31T12:18:31.661Z,9.07
2022-10-31T12:20:59.218Z,5.70
2022-10-31T12:23:25.707Z,6.77
2022-10-31T12:25:52.228Z,5.53
2022-10-31T12:28:18.784Z,5.43
2022-10-31T12:30:45.293Z,7.83
2022-10-31T12:33:11.799Z,5.63
2022-10-31T12:38:09.723Z,5.83
2022-10-31T12:40:36.235Z,7.23
2022-10-31T12:43:02.965Z,5.77
2022-10-31T12:45:29.714Z,6.03
2022-10-31T12:47:56.227Z,5.80
2022-10-31T12:50:22.721Z,9.97
2022-10-31T12:52:49.200Z,6.67
2022-10-31T12:55:15.723Z,7.07
2022-10-31T12:57:42.330Z,10.07
2022-10-31T13:00:08.896Z,7.20
2022-10-31T13:02:35.408Z,10.53
2022-10-31T13:05:01.925Z,7.20
2022-10-31T13:07:28.484Z,6.93
2022-10-31T13:09:54.994Z,5.87
2022-10-31T13:12:21.535Z,7.73
2022-10-31T13:14:48.042Z,9.03
2022-10-31T13:17:14.515Z,7.10
2022-10-31T13:19:41.015Z,5.57
2022-10-31T13:22:07.516Z,5.57
2022-10-31T13:24:34.031Z,3.93
2022-10-31T13:27:00.946Z,9.33
2022-10-31T13:29:31.506Z,6.70
2022-10-31T13:31:59.380Z,5.93
2022-10-31T13:34:25.912Z,8.97
2022-10-31T13:36:52.468Z,6.07
2022-10-31T13:39:18.984Z,8.27
2022-10-31T13:41:45.535Z,11.07
2022-10-31T13:44:12.101Z,6.80
2022-10-31T13:46:38.865Z,4.77
2022-10-31T13:49:05.368Z,5.40
2022-10-31T13:51:31.848Z,6.03
2022-10-31T13:53:58.351Z,6.60
2022-10-31T13:56:24.824Z,10.23
2022-10-31T13:58:51.355Z,7.23
2022-10-31T14:01:18.035Z,5.00
2022-10-31T14:06:31.225Z,9.43
2022-10-31T14:08:57.761Z,5.13
2022-10-31T14:11:24.248Z,6.83
2022-10-31T14:13:50.798Z,6.03
2022-10-31T14:16:17.325Z,5.97
2022-10-31T14:18:43.790Z,8.37
2022-10-31T14:21:10.288Z,6.43
2022-10-31T14:23:36.838Z,6.57
2022-10-31T14:26:03.346Z,10.30
2022-10-31T14:28:29.872Z,4.80
2022-10-31T14:30:56.401Z,5.70
2022-10-31T14:33:22.875Z,7.63
2022-10-31T14:35:49.386Z,3.53
2022-10-31T14:38:15.896Z,8.20
2022-10-31T14:40:42.389Z,8.20
2022-10-31T14:43:09.084Z,5.90
2022-10-31T14:45:35.596Z,7.43
2022-10-31T14:48:06.899Z,7.83
2022-10-31T14:50:34.767Z,7.73
2022-10-31T14:53:01.401Z,4.60
2022-10-31T14:55:28.205Z,7.10
2022-10-31T14:57:54.717Z,8.10
2022-10-31T15:00:21.241Z,9.57
2022-10-31T15:02:47.723Z,7.20
2022-10-31T15:05:14.236Z,7.10
2022-10-31T15:07:40.884Z,6.87
2022-10-31T15:10:07.486Z,7.67
2022-10-31T15:12:34.050Z,9.03
2022-10-31T15:15:00.592Z,6.03
2022-10-31T15:17:27.103Z,7.00
2022-10-31T15:19:53.649Z,6.27
2022-10-31T15:22:20.130Z,6.80
2022-10-31T15:24:46.688Z,6.57
2022-10-31T15:27:13.211Z,7.53
2022-10-31T15:29:39.688Z,6.63
2022-10-31T15:32:06.235Z,9.80
2022-10-31T15:34:32.714Z,7.63
2022-10-31T15:36:59.228Z,6.90
2022-10-31T15:39:25.759Z,9.17
2022-10-31T15:41:54.666Z,8.80
2022-10-31T15:44:21.573Z,6.27
2022-10-31T15:46:48.275Z,7.20
2022-10-31T15:49:14.787Z,7.30
2022-10-31T15:51:41.321Z,6.37
2022-10-31T15:54:07.882Z,8.83
2022-10-31T15:56:34.353Z,7.00
2022-10-31T15:59:00.863Z,10.90
2022-10-31T16:01:27.542Z,7.57
2022-10-31T16:03:54.126Z,9.90
2022-10-31T16:06:20.641Z,6.73
2022-10-31T16:08:47.151Z,9.80
2022-10-31T16:11:13.652Z,8.93
2022-10-31T16:13:40.153Z,12.47
2022-10-31T16:16:33.541Z,11.43
2022-10-31T16:18:53.168Z,11.00
2022-10-31T16:21:19.712Z,13.10
2022-10-31T16:23:46.183Z,11.40
2022-10-31T16:26:12.716Z,13.23
2022-10-31T16:28:39.986Z,10.80
2022-10-31T16:31:07.447Z,10.43
2022-10-31T16:33:33.999Z,14.67
2022-10-31T16:36:15.671Z,11.43
2022-10-31T16:38:42.599Z,12.50
2022-10-31T16:41:09.116Z,10.83
2022-10-31T16:43:35.696Z,15.33
2022-10-31T16:46:02.253Z,12.57
2022-10-31T16:48:28.807Z,12.63
2022-10-31T16:50:55.326Z,12.63
2022-10-31T16:53:21.845Z,11.57
2022-10-31T16:55:48.373Z,14.87
2022-10-31T16:58:14.885Z,15.80
2022-10-31T17:00:41.367Z,10.97
2022-10-31T17:03:07.876Z,17.57
2022-10-31T17:05:34.423Z,10.93
2022-10-31T17:08:01.159Z,29.37
2022-10-31T17:10:27.950Z,15.77
2022-10-31T17:12:54.489Z,32.17
2022-10-31T17:15:21.027Z,19.20
2022-10-31T17:17:47.540Z,16.73
2022-10-31T17:20:14.047Z,16.13
2022-10-31T17:25:11.951Z,26.47
2022-10-31T17:27:39.039Z,12.03
2022-10-31T17:30:06.167Z,12.47
2022-10-31T17:32:32.678Z,17.60
2022-10-31T17:34:59.184Z,11.83
2022-10-31T17:37:25.683Z,15.33
2022-10-31T17:39:52.196Z,16.90
2022-10-31T17:42:18.704Z,13.23
2022-10-31T17:44:45.252Z,13.23
2022-10-31T17:47:11.762Z,9.63
2022-10-31T17:49:38.283Z,9.27
2022-10-31T17:52:06.332Z,12.17
2022-10-31T17:54:32.842Z,8.77
2022-10-31T17:56:59.355Z,11.97
2022-10-31T17:59:25.881Z,13.50
2022-10-31T18:01:52.470Z,21.33
2022-10-31T18:04:19.066Z,20.80
2022-10-31T18:06:45.586Z,24.53
2022-10-31T18:09:12.098Z,44.50
2022-10-31T18:11:38.610Z,38.33
2022-10-31T18:14:05.089Z,29.47
2022-10-31T18:16:31.668Z,29.77
2022-10-31T18:18:58.240Z,26.00
2022-10-31T18:21:24.784Z,25.07
2022-10-31T18:23:51.300Z,17.57
2022-10-31T18:26:17.815Z,19.07
2022-10-31T18:28:44.377Z,13.23
2022-10-31T18:31:10.896Z,12.57
2022-10-31T18:33:37.477Z,15.63
2022-10-31T18:36:04.102Z,14.93
2022-10-31T18:38:30.628Z,13.63
2022-10-31T18:40:57.107Z,16.30
2022-10-31T18:43:23.661Z,18.03
2022-10-31T18:45:55.013Z,14.47
2022-10-31T18:48:24.726Z,11.70
2022-10-31T18:50:51.297Z,15.30
2022-10-31T18:53:17.902Z,10.13
2022-10-31T18:55:49.135Z,12.50
2022-10-31T18:58:16.672Z,12.23
2022-10-31T19:00:43.254Z,13.43
2022-10-31T19:03:09.844Z,11.73
2022-10-31T19:05:36.323Z,10.67
2022-10-31T19:08:02.830Z,9.17
2022-10-31T19:10:29.385Z,8.23
2022-10-31T19:12:55.867Z,11.73
2022-10-31T19:15:22.560Z,10.07
2022-10-31T19:17:49.113Z,13.23
2022-10-31T19:20:15.635Z,9.63
2022-10-31T19:22:42.103Z,10.73
2022-10-31T19:25:10.566Z,9.83
2022-10-31T19:27:37.494Z,10.00
2022-10-31T19:30:03.977Z,12.47
2022-10-31T19:32:30.483Z,9.33
2022-10-31T19:34:57.020Z,11.20
2022-10-31T19:37:23.563Z,13.77
2022-10-31T19:39:50.079Z,10.40
2022-10-31T19:42:16.641Z,13.93
2022-10-31T19:44:43.181Z,9.40
2022-10-31T19:47:09.696Z,9.10
2022-10-31T19:49:36.395Z,8.43
2022-10-31T19:52:02.875Z,11.63
2022-10-31T19:54:29.441Z,9.30
2022-10-31T19:56:57.140Z,9.77
2022-10-31T19:59:23.687Z,12.40
2022-10-31T20:01:50.272Z,7.87
2022-10-31T20:04:16.854Z,10.23
2022-10-31T20:06:43.399Z,9.20
2022-10-31T20:09:09.985Z,7.70
2022-10-31T20:11:36.469Z,9.53
2022-10-31T20:14:03.008Z,8.50
2022-10-31T20:16:29.569Z,10.07
2022-10-31T20:18:56.046Z,10.50
2022-10-31T20:21:22.841Z,9.93
2022-10-31T20:23:49.382Z,10.40
2022-10-31T20:26:15.895Z,9.93
2022-10-31T20:28:43.689Z,7.50
2022-10-31T20:31:10.387Z,10.87
2022-10-31T20:33:36.904Z,7.60
2022-10-31T20:36:03.494Z,7.00
2022-10-31T20:38:30.100Z,9.47
2022-10-31T20:40:56.619Z,9.67
2022-10-31T20:43:23.221Z,8.77
2022-10-31T20:45:49.746Z,10.10
2022-10-31T20:48:16.326Z,11.20
2022-10-31T20:50:42.867Z,8.97
2022-10-31T20:53:09.375Z,11.33
2022-10-31T20:55:35.846Z,11.10
2022-10-31T20:58:02.396Z,14.03
2022-10-31T21:00:28.948Z,10.53
2022-10-31T21:02:55.425Z,11.30
2022-10-31T21:05:21.937Z,8.77
2022-10-31T21:07:48.466Z,7.73
2022-10-31T21:10:15.151Z,10.30
2022-10-31T21:12:41.823Z,11.57
2022-10-31T21:15:08.303Z,12.57
2022-10-31T21:17:34.819Z,8.47
2022-10-31T21:20:01.355Z,9.40
2022-10-31T21:22:27.863Z,9.50
2022-10-31T21:24:54.371Z,10.80
2022-10-31T21:27:20.897Z,9.57
2022-10-31T21:29:47.470Z,8.43
2022-10-31T21:32:13.961Z,12.33
2022-10-31T21:34:40.577Z,8.20
2022-10-31T21:37:07.178Z,8.77
2022-10-31T21:39:33.703Z,6.17
2022-10-31T21:42:00.183Z,9.43
2022-10-31T21:44:26.754Z,9.00
2022-10-31T21:46:53.263Z,8.90
2022-10-31T21:49:19.790Z,12.30
2022-10-31T21:51:46.324Z,9.23
2022-10-31T21:54:12.834Z,9.53
2022-10-31T21:56:39.341Z,7.97
2022-10-31T21:59:05.901Z,9.70
2022-10-31T22:01:32.498Z,9.90
2022-10-31T22:03:59.156Z,9.70
2022-10-31T22:06:25.696Z,5.93
2022-10-31T22:08:52.239Z,9.33
2022-10-31T22:11:18.746Z,10.40
2022-10-31T22:13:45.260Z,10.33
2022-10-31T22:16:11.782Z,9.63
2022-10-31T22:18:38.317Z,6.90
2022-10-31T22:21:04.794Z,8.03
2022-10-31T22:23:31.269Z,8.27
2022-10-31T22:25:57.771Z,5.73
2022-10-31T22:28:24.284Z,6.37
2022-10-31T22:30:50.803Z,8.00
2022-10-31T22:33:17.355Z,8.97
2022-10-31T22:35:43.862Z,7.23
2022-10-31T22:38:10.357Z,5.83
2022-10-31T22:40:36.839Z,6.43
2022-10-31T22:43:03.585Z,7.97
2022-10-31T22:45:30.279Z,8.03
2022-10-31T22:47:56.822Z,7.23
2022-10-31T22:50:23.346Z,6.03
2022-10-31T22:52:49.863Z,4.40
2022-10-31T22:55:16.408Z,10.30
2022-10-31T22:57:42.927Z,7.93
2022-10-31T23:00:09.464Z,6.93
2022-10-31T23:02:36.299Z,6.43
2022-10-31T23:05:02.917Z,6.80
2022-10-31T23:07:32.880Z,8.60
2022-10-31T23:09:59.713Z,9.00
2022-10-31T23:12:26.256Z,5.30
2022-10-31T23:14:52.807Z,9.47
2022-10-31T23:17:19.319Z,8.37
2022-10-31T23:19:45.826Z,7.47
2022-10-31T23:22:12.371Z,6.57
2022-10-31T23:24:38.896Z,8.57
2022-10-31T23:27:05.410Z,8.43
2022-10-31T23:29:31.959Z,9.47
2022-10-31T23:31:58.507Z,8.60
2022-10-31T23:34:25.027Z,8.80
2022-10-31T23:36:51.568Z,6.43
2022-10-31T23:39:21.204Z,4.43
2022-10-31T23:41:50.704Z,4.67
2022-10-31T23:44:17.228Z,4.33
2022-10-31T23:46:43.696Z,4.87
2022-10-31T23:49:10.211Z,7.10
2022-10-31T23:51:36.732Z,7.60
2022-10-31T23:54:03.249Z,4.43
2022-10-31T23:56:29.755Z,5.90
2022-10-31T23:58:56.317Z,8.07
